Time;durP1;ratioP1;P1;durP2;ratioP2;P2;SDS_P1;SDS_P2;PMS_P1;PMS_P2;Temp;Humidity;BMP_temperature;BMP_pressure;BME280_temperature;BME280_humidity;BME280_pressure;Samples;Min_cycle;Max_cycle;Signal;HPM_P1;HPM_P2
2023/04/26 00:01:57;;;;;;;;;9.50;8.50;;;;;;;;5076494;27;61833;-80
2023/04/26 00:04:23;;;;;;;;;10.50;7.75;;;;;;;;5071181;27;62657;-79
2023/04/26 00:06:49;;;;;;;;;10.75;8.00;;;;;;;;5080285;27;62144;-79
2023/04/26 00:09:14;;;;;;;;;10.00;10.00;;;;;;;;5078714;28;62047;-79
2023/04/26 00:11:39;;;;;;;;;13.00;9.75;;;;;;;;5081141;28;61857;-79
2023/04/26 00:14:05;;;;;;;;;10.00;8.75;;;;;;;;5079334;27;62261;-80
2023/04/26 00:16:30;;;;;;;;;11.75;7.75;;;;;;;;5080089;28;61787;-80
2023/04/26 00:18:55;;;;;;;;;10.00;8.75;;;;;;;;5079340;28;61948;-79
2023/04/26 00:21:20;;;;;;;;;9.00;9.00;;;;;;;;5079423;27;61849;-79
2023/04/26 00:23:46;;;;;;;;;9.50;8.75;;;;;;;;5066590;28;61838;-80
2023/04/26 00:26:11;;;;;;;;;9.00;6.75;;;;;;;;5078439;28;61750;-79
2023/04/26 00:28:36;;;;;;;;;11.00;8.00;;;;;;;;5080921;28;61754;-80
2023/04/26 00:31:01;;;;;;;;;10.50;8.25;;;;;;;;5080131;28;61849;-79
2023/04/26 00:33:27;;;;;;;;;10.00;7.50;;;;;;;;5068177;28;62493;-79
2023/04/26 00:35:52;;;;;;;;;9.75;8.00;;;;;;;;5075730;28;61875;-80
2023/04/26 00:38:17;;;;;;;;;8.25;7.75;;;;;;;;5079621;28;61690;-80
2023/04/26 00:40:42;;;;;;;;;13.25;8.25;;;;;;;;5073718;28;61787;-79
2023/04/26 00:43:07;;;;;;;;;9.75;7.00;;;;;;;;5080101;28;61726;-79
2023/04/26 00:45:33;;;;;;;;;7.50;6.25;;;;;;;;5077630;28;63673;-79
2023/04/26 00:48:00;;;;;;;;;12.75;11.75;;;;;;;;5080121;28;62181;-79
2023/04/26 00:50:25;;;;;;;;;25.50;22.75;;;;;;;;5081130;27;61893;-80
2023/04/26 00:52:50;;;;;;;;;50.25;40.25;;;;;;;;5081147;28;62241;-79
2023/04/26 00:55:16;;;;;;;;;16.25;15.00;;;;;;;;5080606;28;61862;-79
2023/04/26 00:57:42;;;;;;;;;16.75;8.50;;;;;;;;5080403;27;61632;-79
2023/04/26 01:00:08;;;;;;;;;13.00;8.75;;;;;;;;5080848;28;62088;-80
2023/04/26 01:02:33;;;;;;;;;7.25;6.50;;;;;;;;5079945;27;61863;-79
2023/04/26 01:04:59;;;;;;;;;7.00;7.00;;;;;;;;5079421;28;65225;-79
2023/04/26 01:07:24;;;;;;;;;8.75;8.00;;;;;;;;5068009;27;61914;-79
2023/04/26 01:09:50;;;;;;;;;7.00;6.50;;;;;;;;5082456;28;61814;-79
2023/04/26 01:12:16;;;;;;;;;10.75;5.00;;;;;;;;5070007;27;61910;-79
2023/04/26 01:14:42;;;;;;;;;7.75;5.00;;;;;;;;5066797;28;62170;-79
2023/04/26 01:17:08;;;;;;;;;11.25;5.75;;;;;;;;5082793;27;61749;-79
2023/04/26 01:19:36;;;;;;;;;8.25;6.50;;;;;;;;5090044;27;62044;-79
2023/04/26 01:22:02;;;;;;;;;7.50;6.25;;;;;;;;5080388;27;61767;-79
2023/04/26 01:24:27;;;;;;;;;7.75;7.75;;;;;;;;5083352;28;61832;-79
2023/04/26 01:26:52;;;;;;;;;5.25;5.25;;;;;;;;5082941;27;62077;-79
2023/04/26 01:29:18;;;;;;;;;8.75;6.00;;;;;;;;5084334;28;62309;-79
2023/04/26 01:31:44;;;;;;;;;6.50;6.50;;;;;;;;5083275;27;61762;-79
2023/04/26 01:34:10;;;;;;;;;6.00;6.00;;;;;;;;5082079;28;61770;-79
2023/04/26 01:36:35;;;;;;;;;6.75;6.25;;;;;;;;5064283;27;61729;-79
2023/04/26 01:39:00;;;;;;;;;6.50;6.50;;;;;;;;5073845;28;61821;-80
2023/04/26 01:41:25;;;;;;;;;2.00;2.00;;;;;;;;5083517;27;62664;-79
2023/04/26 01:43:51;;;;;;;;;4.00;4.00;;;;;;;;5082089;27;61986;-79
2023/04/26 01:46:16;;;;;;;;;7.75;7.00;;;;;;;;5083290;28;61677;-79
2023/04/26 01:48:41;;;;;;;;;8.75;7.50;;;;;;;;5083154;28;61910;-79
2023/04/26 01:51:06;;;;;;;;;4.00;4.00;;;;;;;;5065377;28;61871;-79
2023/04/26 01:53:32;;;;;;;;;9.75;5.50;;;;;;;;5066995;28;62802;-79
2023/04/26 01:56:01;;;;;;;;;10.00;5.75;;;;;;;;5081916;28;61839;-79
2023/04/26 01:58:27;;;;;;;;;4.50;3.75;;;;;;;;5083062;27;61715;-79
2023/04/26 02:00:52;;;;;;;;;7.25;7.25;;;;;;;;5076396;27;62057;-79
2023/04/26 02:03:17;;;;;;;;;3.50;3.50;;;;;;;;5063964;28;61850;-79
2023/04/26 02:05:43;;;;;;;;;11.50;6.00;;;;;;;;5069090;28;61804;-79
2023/04/26 02:08:08;;;;;;;;;3.50;3.50;;;;;;;;5082464;27;62222;-79
2023/04/26 02:10:33;;;;;;;;;8.00;6.25;;;;;;;;5083839;28;61868;-80
2023/04/26 02:12:58;;;;;;;;;10.50;3.75;;;;;;;;5085997;27;61864;-80
2023/04/26 02:15:24;;;;;;;;;10.50;6.25;;;;;;;;5081974;27;62106;-79
2023/04/26 02:17:49;;;;;;;;;4.25;4.25;;;;;;;;5082162;27;62086;-79
2023/04/26 02:20:15;;;;;;;;;11.25;5.50;;;;;;;;5082731;27;61893;-79
2023/04/26 02:22:40;;;;;;;;;9.25;7.75;;;;;;;;5079937;27;62201;-79
2023/04/26 02:25:06;;;;;;;;;8.00;6.75;;;;;;;;5081638;28;62042;-79
2023/04/26 02:27:31;;;;;;;;;7.50;7.00;;;;;;;;5080322;28;63167;-79
2023/04/26 02:29:57;;;;;;;;;8.75;6.00;;;;;;;;5080860;27;61924;-79
2023/04/26 02:32:22;;;;;;;;;7.25;6.25;;;;;;;;5073053;28;63376;-79
2023/04/26 02:34:47;;;;;;;;;9.00;9.00;;;;;;;;5063965;28;61856;-79
2023/04/26 02:37:13;;;;;;;;;12.00;10.25;;;;;;;;5081684;27;62028;-79
2023/04/26 02:39:39;;;;;;;;;7.00;7.00;;;;;;;;5079182;28;61797;-79
2023/04/26 02:42:07;;;;;;;;;4.00;4.00;;;;;;;;5081365;28;62714;-79
2023/04/26 02:44:32;;;;;;;;;7.25;7.25;;;;;;;;5073789;28;61932;-79
2023/04/26 02:46:58;;;;;;;;;11.50;8.50;;;;;;;;5080534;28;61744;-79
2023/04/26 02:49:23;;;;;;;;;7.50;6.75;;;;;;;;5083379;28;62184;-79
2023/04/26 02:51:48;;;;;;;;;7.75;7.75;;;;;;;;5080432;27;61730;-78
2023/04/26 02:54:13;;;;;;;;;11.00;7.50;;;;;;;;5083059;28;61919;-79
2023/04/26 02:56:38;;;;;;;;;13.50;12.25;;;;;;;;5078932;28;61806;-79
2023/04/26 02:59:04;;;;;;;;;10.50;8.00;;;;;;;;5074448;28;62019;-79
2023/04/26 03:01:29;;;;;;;;;10.75;8.25;;;;;;;;5074359;28;62701;-79
2023/04/26 03:03:54;;;;;;;;;8.25;7.00;;;;;;;;5080949;28;61999;-80
2023/04/26 03:06:20;;;;;;;;;10.50;8.00;;;;;;;;5076814;28;61826;-80
2023/04/26 03:08:45;;;;;;;;;8.50;7.00;;;;;;;;5078290;28;61798;-80
2023/04/26 03:11:10;;;;;;;;;4.50;4.25;;;;;;;;5077183;28;63578;-80
2023/04/26 03:13:36;;;;;;;;;10.00;8.25;;;;;;;;5061870;28;61907;-79
2023/04/26 03:16:01;;;;;;;;;10.75;8.50;;;;;;;;5078876;28;62058;-80
2023/04/26 03:18:27;;;;;;;;;10.00;8.00;;;;;;;;5082931;27;61949;-80
2023/04/26 03:20:52;;;;;;;;;8.50;7.75;;;;;;;;5081019;27;61814;-79
2023/04/26 03:23:18;;;;;;;;;10.75;7.00;;;;;;;;5082106;28;61947;-80
2023/04/26 03:25:44;;;;;;;;;12.00;6.75;;;;;;;;5082292;27;61807;-81
2023/04/26 03:28:10;;;;;;;;;15.25;11.50;;;;;;;;5076809;27;61821;-79
2023/04/26 03:30:35;;;;;;;;;7.75;7.00;;;;;;;;5074257;27;63558;-79
2023/04/26 03:33:00;;;;;;;;;7.50;7.00;;;;;;;;5081854;27;61801;-79
2023/04/26 03:35:25;;;;;;;;;5.25;5.25;;;;;;;;5074541;28;63202;-79
2023/04/26 03:37:51;;;;;;;;;6.75;6.50;;;;;;;;5082456;28;62112;-80
2023/04/26 03:40:16;;;;;;;;;6.25;6.25;;;;;;;;5079584;28;63767;-79
2023/04/26 03:42:41;;;;;;;;;7.75;7.50;;;;;;;;5081749;28;61993;-79
2023/04/26 03:45:07;;;;;;;;;7.00;7.00;;;;;;;;5073006;27;61769;-79
2023/04/26 03:47:32;;;;;;;;;11.25;8.25;;;;;;;;5081016;28;61960;-79
2023/04/26 03:49:57;;;;;;;;;9.25;7.00;;;;;;;;5073274;28;63852;-79
2023/04/26 03:52:23;;;;;;;;;10.50;6.50;;;;;;;;5078919;28;61913;-79
2023/04/26 03:54:48;;;;;;;;;12.25;7.00;;;;;;;;5082170;28;61813;-79
2023/04/26 03:57:13;;;;;;;;;7.50;7.00;;;;;;;;5080974;28;61910;-79
2023/04/26 03:59:38;;;;;;;;;16.00;8.50;;;;;;;;5081305;28;61967;-80
2023/04/26 04:02:04;;;;;;;;;7.50;6.50;;;;;;;;5066428;28;62313;-79
2023/04/26 04:04:29;;;;;;;;;6.25;6.25;;;;;;;;5068120;28;61977;-79
2023/04/26 04:06:54;;;;;;;;;12.50;8.50;;;;;;;;5081940;28;61987;-79
2023/04/26 04:09:20;;;;;;;;;11.50;8.75;;;;;;;;5080406;28;62549;-80
2023/04/26 04:11:45;;;;;;;;;7.75;6.25;;;;;;;;5078804;27;61964;-79
2023/04/26 04:14:10;;;;;;;;;11.00;8.75;;;;;;;;5078964;28;61813;-79
2023/04/26 04:16:36;;;;;;;;;8.25;8.00;;;;;;;;5079939;28;62153;-79
2023/04/26 04:19:01;;;;;;;;;11.75;6.50;;;;;;;;5080272;28;61839;-79
2023/04/26 04:21:26;;;;;;;;;12.00;6.00;;;;;;;;5081601;28;62193;-79
2023/04/26 04:23:52;;;;;;;;;7.75;6.25;;;;;;;;5069561;28;61958;-79
2023/04/26 04:26:17;;;;;;;;;8.00;8.00;;;;;;;;5081591;27;61754;-79
2023/04/26 04:28:44;;;;;;;;;10.00;8.25;;;;;;;;5069426;28;63550;-79
2023/04/26 04:31:10;;;;;;;;;8.00;7.00;;;;;;;;5081160;28;61762;-80
2023/04/26 04:33:35;;;;;;;;;13.25;6.00;;;;;;;;5081468;27;62226;-79
2023/04/26 04:36:00;;;;;;;;;8.75;6.75;;;;;;;;5080418;27;62418;-80
2023/04/26 04:38:26;;;;;;;;;7.00;7.00;;;;;;;;5079483;28;65029;-80
2023/04/26 04:40:51;;;;;;;;;13.00;7.50;;;;;;;;5081469;27;61891;-79
2023/04/26 04:43:16;;;;;;;;;6.75;6.75;;;;;;;;5084768;27;62042;-80
2023/04/26 04:45:42;;;;;;;;;9.25;6.50;;;;;;;;5081028;27;61706;-79
2023/04/26 04:48:08;;;;;;;;;8.00;6.25;;;;;;;;5082595;27;62094;-79
2023/04/26 04:50:34;;;;;;;;;6.75;6.75;;;;;;;;5083892;27;61929;-79
2023/04/26 04:52:59;;;;;;;;;7.25;6.25;;;;;;;;5077137;28;61877;-79
2023/04/26 04:55:25;;;;;;;;;10.75;6.00;;;;;;;;5072796;28;61718;-79
2023/04/26 04:57:50;;;;;;;;;8.50;7.00;;;;;;;;5083468;27;61967;-80
2023/04/26 05:00:15;;;;;;;;;8.50;7.00;;;;;;;;5081976;28;62331;-79
2023/04/26 05:02:41;;;;;;;;;10.00;7.00;;;;;;;;5084463;27;62228;-80
2023/04/26 05:05:06;;;;;;;;;12.50;7.50;;;;;;;;5084599;28;61863;-80
2023/04/26 05:07:31;;;;;;;;;8.50;8.50;;;;;;;;5079979;28;63703;-80
2023/04/26 05:09:57;;;;;;;;;11.50;7.50;;;;;;;;5084470;27;61975;-79
2023/04/26 05:12:22;;;;;;;;;9.00;7.00;;;;;;;;5082382;27;61794;-79
2023/04/26 05:14:47;;;;;;;;;10.50;8.25;;;;;;;;5082829;28;61870;-79
2023/04/26 05:17:13;;;;;;;;;9.00;7.50;;;;;;;;5080205;28;63703;-79
2023/04/26 05:19:38;;;;;;;;;40.00;27.50;;;;;;;;5074733;28;61862;-83
2023/04/26 05:22:03;;;;;;;;;21.75;17.00;;;;;;;;5083822;27;61805;-83
2023/04/26 05:24:29;;;;;;;;;19.25;16.00;;;;;;;;5081179;27;61951;-82
2023/04/26 05:26:57;;;;;;;;;8.25;5.50;;;;;;;;5083032;27;62623;-82
2023/04/26 05:29:22;;;;;;;;;20.75;13.50;;;;;;;;5073928;27;61868;-82
2023/04/26 05:31:48;;;;;;;;;12.50;11.75;;;;;;;;5082939;28;62168;-79
2023/04/26 05:34:13;;;;;;;;;8.00;8.00;;;;;;;;5082134;27;62362;-80
2023/04/26 05:36:39;;;;;;;;;13.25;7.25;;;;;;;;5082466;27;62580;-80
2023/04/26 05:39:05;;;;;;;;;13.75;8.25;;;;;;;;5083942;27;61888;-81
2023/04/26 05:41:30;;;;;;;;;9.75;7.25;;;;;;;;5082847;27;62003;-81
2023/04/26 05:43:56;;;;;;;;;8.00;8.00;;;;;;;;5083222;28;61861;-79
2023/04/26 05:46:21;;;;;;;;;13.50;11.00;;;;;;;;5093515;27;61985;-80
2023/04/26 05:48:46;;;;;;;;;19.00;10.00;;;;;;;;5085753;27;62128;-80
2023/04/26 05:51:12;;;;;;;;;9.00;9.00;;;;;;;;5083233;27;62041;-81
2023/04/26 05:53:37;;;;;;;;;9.50;8.75;;;;;;;;5082053;28;61984;-81
2023/04/26 05:56:03;;;;;;;;;10.00;10.00;;;;;;;;5085153;27;63646;-81
2023/04/26 05:58:32;;;;;;;;;15.00;12.25;;;;;;;;5078959;28;62004;-82
2023/04/26 06:00:58;;;;;;;;;15.25;9.50;;;;;;;;5077935;28;62048;-83
2023/04/26 06:03:23;;;;;;;;;12.25;9.00;;;;;;;;5075053;28;62726;-81
2023/04/26 06:05:49;;;;;;;;;13.00;12.00;;;;;;;;5077250;28;62041;-80
2023/04/26 06:08:14;;;;;;;;;19.25;15.25;;;;;;;;5080741;27;62635;-80
2023/04/26 06:10:40;;;;;;;;;12.25;11.00;;;;;;;;5082312;28;61883;-80
2023/04/26 06:13:05;;;;;;;;;9.25;9.25;;;;;;;;5079261;28;62135;-80
2023/04/26 06:15:30;;;;;;;;;11.00;8.50;;;;;;;;5079790;28;62471;-80
2023/04/26 06:17:56;;;;;;;;;17.25;12.75;;;;;;;;5081717;27;62004;-80
2023/04/26 06:20:21;;;;;;;;;9.50;8.00;;;;;;;;5074229;27;61955;-80
2023/04/26 06:22:46;;;;;;;;;16.50;11.00;;;;;;;;5077159;27;61693;-80
2023/04/26 06:25:12;;;;;;;;;24.00;11.25;;;;;;;;5080422;27;61965;-79
2023/04/26 06:27:38;;;;;;;;;8.00;8.00;;;;;;;;5077306;28;61980;-79
2023/04/26 06:30:03;;;;;;;;;13.75;11.50;;;;;;;;5078289;27;61754;-78
2023/04/26 06:32:29;;;;;;;;;10.00;10.00;;;;;;;;5078768;27;61716;-80
2023/04/26 06:34:54;;;;;;;;;14.00;12.00;;;;;;;;5074282;28;62804;-80
2023/04/26 06:37:20;;;;;;;;;12.75;11.50;;;;;;;;5070188;27;61908;-80
2023/04/26 06:39:45;;;;;;;;;16.25;11.75;;;;;;;;5071543;27;62033;-80
2023/04/26 06:42:10;;;;;;;;;21.75;17.00;;;;;;;;5080993;27;62362;-80
2023/04/26 06:44:35;;;;;;;;;22.50;13.50;;;;;;;;5073688;28;62954;-81
2023/04/26 06:47:00;;;;;;;;;16.00;15.25;;;;;;;;5073151;28;61999;-78
2023/04/26 06:49:26;;;;;;;;;15.75;14.00;;;;;;;;5077467;27;61926;-80
2023/04/26 06:51:52;;;;;;;;;11.00;10.25;;;;;;;;5078253;27;61733;-80
2023/04/26 06:54:17;;;;;;;;;17.75;14.75;;;;;;;;5071775;28;61862;-81
2023/04/26 06:56:46;;;;;;;;;11.75;11.50;;;;;;;;5080256;27;61828;-80
2023/04/26 06:59:12;;;;;;;;;16.50;13.50;;;;;;;;5082770;27;62131;-80
2023/04/26 07:01:37;;;;;;;;;25.50;17.50;;;;;;;;5085406;27;61878;-80
2023/04/26 07:04:03;;;;;;;;;18.50;14.00;;;;;;;;5078554;27;63039;-79
2023/04/26 07:06:30;;;;;;;;;13.00;12.75;;;;;;;;5076929;27;62025;-80
2023/04/26 07:08:56;;;;;;;;;13.75;12.00;;;;;;;;5081634;28;62041;-80
2023/04/26 07:11:21;;;;;;;;;21.75;17.00;;;;;;;;5080610;27;61786;-81
2023/04/26 07:13:47;;;;;;;;;20.00;13.50;;;;;;;;5090933;27;62775;-82
2023/04/26 07:16:12;;;;;;;;;30.25;29.25;;;;;;;;5081462;28;61913;-82
2023/04/26 07:18:38;;;;;;;;;21.75;19.50;;;;;;;;5081586;27;61856;-81
2023/04/26 07:21:04;;;;;;;;;18.00;14.50;;;;;;;;5080072;28;62548;-81
2023/04/26 07:23:29;;;;;;;;;15.50;12.00;;;;;;;;5081008;27;61777;-81
2023/04/26 07:26:00;;;;;;;;;20.50;16.00;;;;;;;;5080810;27;61832;-81
2023/04/26 07:28:26;;;;;;;;;16.50;12.00;;;;;;;;5077708;28;62031;-82
2023/04/26 07:30:51;;;;;;;;;26.00;19.25;;;;;;;;5082146;28;61787;-82
2023/04/26 07:33:17;;;;;;;;;18.75;13.00;;;;;;;;5077116;28;63944;-81
2023/04/26 07:35:42;;;;;;;;;17.00;14.75;;;;;;;;5079019;27;61901;-82
2023/04/26 07:38:08;;;;;;;;;19.50;13.75;;;;;;;;5081581;28;61869;-82
2023/04/26 07:40:33;;;;;;;;;17.75;13.75;;;;;;;;5077017;27;61931;-81
2023/04/26 07:43:06;;;;;;;;;19.00;13.50;;;;;;;;5070816;27;62453;-82
2023/04/26 07:45:32;;;;;;;;;24.25;16.75;;;;;;;;5072442;27;62121;-82
2023/04/26 07:47:58;;;;;;;;;14.25;14.25;;;;;;;;5079042;27;62473;-81
2023/04/26 07:50:23;;;;;;;;;22.25;16.00;;;;;;;;5079968;27;61970;-80
2023/04/26 07:52:48;;;;;;;;;16.00;14.75;;;;;;;;5079969;27;62274;-82
2023/04/26 07:55:15;;;;;;;;;21.75;16.25;;;;;;;;5080821;28;62088;-82
2023/04/26 07:57:40;;;;;;;;;19.50;13.25;;;;;;;;5075489;27;63400;-81
2023/04/26 08:00:11;;;;;;;;;19.75;19.00;;;;;;;;5078313;27;62522;-82
2023/04/26 08:02:45;;;;;;;;;21.50;16.25;;;;;;;;5078769;27;62182;-83
2023/04/26 08:05:10;;;;;;;;;16.75;14.50;;;;;;;;5075357;28;61941;-83
2023/04/26 08:07:36;;;;;;;;;19.75;17.25;;;;;;;;5076554;27;62094;-84
2023/04/26 08:10:02;;;;;;;;;21.75;17.50;;;;;;;;5066168;27;62119;-81
2023/04/26 08:12:29;;;;;;;;;18.50;15.25;;;;;;;;5080482;28;61713;-83
2023/04/26 08:14:54;;;;;;;;;18.25;14.50;;;;;;;;5079134;27;62115;-83
2023/04/26 08:17:19;;;;;;;;;17.75;15.25;;;;;;;;5084303;28;62041;-82
2023/04/26 08:19:45;;;;;;;;;22.50;15.25;;;;;;;;5082959;27;61982;-82
2023/04/26 08:22:10;;;;;;;;;14.75;13.25;;;;;;;;5083278;27;62634;-83
2023/04/26 08:24:35;;;;;;;;;18.75;14.50;;;;;;;;5083890;27;61841;-84
2023/04/26 08:27:00;;;;;;;;;18.00;16.50;;;;;;;;5081489;27;61932;-81
2023/04/26 08:29:26;;;;;;;;;14.50;13.50;;;;;;;;5084170;27;61775;-82
2023/04/26 08:31:51;;;;;;;;;14.75;14.50;;;;;;;;5080047;27;61889;-83
2023/04/26 08:34:17;;;;;;;;;20.50;16.00;;;;;;;;5078092;28;62234;-85
2023/04/26 08:36:42;;;;;;;;;13.50;13.25;;;;;;;;5079750;28;62050;-84
2023/04/26 08:39:08;;;;;;;;;15.25;15.25;;;;;;;;5078205;27;61893;-84
2023/04/26 08:41:41;;;;;;;;;20.00;15.75;;;;;;;;5082143;27;61774;-85
2023/04/26 08:44:07;;;;;;;;;13.00;12.75;;;;;;;;5077484;28;62083;-85
2023/04/26 08:46:40;;;;;;;;;21.00;17.25;;;;;;;;5078893;27;62182;-85
2023/04/26 08:49:11;;;;;;;;;21.25;15.25;;;;;;;;5076008;27;62028;-84
2023/04/26 08:51:42;;;;;;;;;16.75;15.75;;;;;;;;5076560;28;61891;-84
2023/04/26 08:54:09;;;;;;;;;14.00;13.00;;;;;;;;5080274;28;61872;-85
2023/04/26 08:56:34;;;;;;;;;16.00;12.50;;;;;;;;5080605;27;61993;-84
2023/04/26 08:59:00;;;;;;;;;14.25;12.75;;;;;;;;5076032;27;61926;-83
2023/04/26 09:01:27;;;;;;;;;15.00;13.00;;;;;;;;5075397;28;61919;-82
2023/04/26 09:03:53;;;;;;;;;15.25;12.00;;;;;;;;5079995;27;62052;-84
2023/04/26 09:06:19;;;;;;;;;16.50;15.50;;;;;;;;5078576;27;62075;-83
2023/04/26 09:08:45;;;;;;;;;17.00;14.25;;;;;;;;5082317;27;62044;-82
2023/04/26 09:11:10;;;;;;;;;16.75;14.25;;;;;;;;5081986;27;62763;-84
2023/04/26 09:13:36;;;;;;;;;18.25;13.00;;;;;;;;5083606;27;61887;-85
2023/04/26 09:16:01;;;;;;;;;13.00;9.00;;;;;;;;5078317;28;62070;-82
2023/04/26 09:18:27;;;;;;;;;21.00;13.25;;;;;;;;5071378;27;61941;-82
2023/04/26 09:21:02;;;;;;;;;13.25;11.50;;;;;;;;5071228;28;64573;-81
2023/04/26 09:23:28;;;;;;;;;23.00;15.25;;;;;;;;5073421;28;61909;-81
2023/04/26 09:25:53;;;;;;;;;21.00;11.00;;;;;;;;5076437;28;62376;-81
2023/04/26 09:28:20;;;;;;;;;15.25;12.00;;;;;;;;5075426;28;61786;-82
2023/04/26 09:35:49;;;;;;;;;14.25;12.50;;;;;;;;5034001;28;62247;-76
2023/04/26 09:38:17;;;;;;;;;11.50;10.75;;;;;;;;5045116;28;62536;-76
2023/04/26 09:40:47;;;;;;;;;9.75;9.00;;;;;;;;5039522;28;64691;-76
2023/04/26 09:43:14;;;;;;;;;8.75;7.50;;;;;;;;5032584;28;62097;-76
2023/04/26 09:45:50;;;;;;;;;13.00;8.75;;;;;;;;5041498;28;61753;-76
2023/04/26 09:48:24;;;;;;;;;12.50;9.75;;;;;;;;5026456;28;61793;-76
2023/04/26 09:50:53;;;;;;;;;11.25;8.00;;;;;;;;5028117;28;63937;-76
2023/04/26 09:53:33;;;;;;;;;7.75;7.75;;;;;;;;5029311;28;61886;-79
2023/04/26 09:56:09;;;;;;;;;10.25;7.50;;;;;;;;5035508;28;61899;-78
2023/04/26 09:58:39;;;;;;;;;10.75;8.25;;;;;;;;5034652;28;61985;-79
2023/04/26 10:01:06;;;;;;;;;9.50;8.00;;;;;;;;5027150;28;62993;-79
2023/04/26 10:03:33;;;;;;;;;10.00;8.50;;;;;;;;5032725;28;61723;-78
2023/04/26 10:05:58;;;;;;;;;9.25;6.00;;;;;;;;5035685;28;62045;-78
2023/04/26 10:08:24;;;;;;;;;10.00;10.00;;;;;;;;5035914;28;62092;-78
2023/04/26 10:10:50;;;;;;;;;13.25;9.25;;;;;;;;5031383;28;62176;-78
2023/04/26 10:13:17;;;;;;;;;8.50;8.50;;;;;;;;5032060;28;61940;-78
2023/04/26 10:15:42;;;;;;;;;11.00;8.00;;;;;;;;5032140;28;62040;-79
2023/04/26 10:18:07;;;;;;;;;13.75;9.75;;;;;;;;5030558;28;61699;-78
2023/04/26 10:20:37;;;;;;;;;7.25;6.25;;;;;;;;5032075;28;63957;-78
2023/04/26 10:23:05;;;;;;;;;9.25;6.00;;;;;;;;5042974;28;62024;-78
2023/04/26 10:25:38;;;;;;;;;11.25;7.00;;;;;;;;5034902;28;62039;-78
2023/04/26 10:28:03;;;;;;;;;15.00;7.50;;;;;;;;5034565;28;62096;-79
2023/04/26 10:30:29;;;;;;;;;5.75;5.75;;;;;;;;5035596;28;63565;-79
2023/04/26 10:32:54;;;;;;;;;8.25;7.75;;;;;;;;5045818;28;62035;-80
2023/04/26 10:35:20;;;;;;;;;6.50;6.50;;;;;;;;5035963;28;62340;-82
2023/04/26 10:37:58;;;;;;;;;8.75;7.00;;;;;;;;5024237;28;61762;-79
2023/04/26 10:40:26;;;;;;;;;6.00;6.00;;;;;;;;5025896;28;61945;-79
2023/04/26 10:43:19;;;;;;;;;6.50;6.50;;;;;;;;5030202;28;61913;-80
2023/04/26 10:45:45;;;;;;;;;5.75;5.00;;;;;;;;5019918;28;62042;-78
2023/04/26 10:48:10;;;;;;;;;5.00;5.00;;;;;;;;5022694;28;61968;-81
2023/04/26 10:50:55;;;;;;;;;6.50;4.00;;;;;;;;5020439;28;63601;-81
2023/04/26 10:53:21;;;;;;;;;6.25;6.25;;;;;;;;5019983;28;61972;-77
2023/04/26 10:55:46;;;;;;;;;6.50;4.75;;;;;;;;5040193;28;62019;-79
2023/04/26 10:58:28;;;;;;;;;6.00;6.00;;;;;;;;5040514;28;62017;-78
2023/04/26 11:01:22;;;;;;;;;6.25;4.00;;;;;;;;5039421;28;62082;-79
2023/04/26 11:03:56;;;;;;;;;5.25;5.00;;;;;;;;5020291;28;61827;-79
2023/04/26 11:06:22;;;;;;;;;3.75;3.75;;;;;;;;5022547;28;61739;-78
2023/04/26 11:08:47;;;;;;;;;5.00;5.00;;;;;;;;5041939;28;61962;-80
2023/04/26 11:11:15;;;;;;;;;8.50;5.00;;;;;;;;5041250;28;61912;-79
2023/04/26 11:13:40;;;;;;;;;9.00;5.00;;;;;;;;5035445;28;62151;-78
2023/04/26 11:16:07;;;;;;;;;9.75;5.00;;;;;;;;5041396;28;61601;-78
2023/04/26 11:18:32;;;;;;;;;4.75;4.00;;;;;;;;5032213;28;62378;-78
2023/04/26 11:20:58;;;;;;;;;8.00;6.25;;;;;;;;5028630;28;61962;-78
2023/04/26 11:23:28;;;;;;;;;8.00;7.50;;;;;;;;5023483;28;62155;-79
2023/04/26 11:25:57;;;;;;;;;7.75;5.00;;;;;;;;5030221;28;61785;-80
2023/04/26 11:28:22;;;;;;;;;6.00;5.00;;;;;;;;5029167;28;62071;-80
2023/04/26 11:30:48;;;;;;;;;7.50;6.75;;;;;;;;5029319;28;65529;-79
2023/04/26 11:33:18;;;;;;;;;9.25;7.00;;;;;;;;5030094;28;61919;-77
2023/04/26 11:35:45;;;;;;;;;4.50;3.75;;;;;;;;5030969;28;62143;-78
2023/04/26 11:38:10;;;;;;;;;6.50;6.00;;;;;;;;5031953;28;61961;-77
2023/04/26 11:40:36;;;;;;;;;5.50;4.25;;;;;;;;5031514;28;61958;-78
2023/04/26 11:43:05;;;;;;;;;14.00;7.00;;;;;;;;5026394;28;62358;-78
2023/04/26 11:45:31;;;;;;;;;8.75;6.00;;;;;;;;5025418;28;61877;-79
2023/04/26 11:47:56;;;;;;;;;7.50;6.00;;;;;;;;5029618;28;62218;-80
2023/04/26 11:50:25;;;;;;;;;6.75;4.00;;;;;;;;5030026;28;63411;-80
2023/04/26 11:52:53;;;;;;;;;7.50;6.00;;;;;;;;5031565;28;62011;-80
2023/04/26 11:55:23;;;;;;;;;9.25;7.00;;;;;;;;5034220;28;61969;-80
2023/04/26 11:57:48;;;;;;;;;6.50;6.50;;;;;;;;5027121;28;62100;-80
2023/04/26 12:00:14;;;;;;;;;6.75;6.75;;;;;;;;5026950;28;64734;-80
2023/04/26 12:02:46;;;;;;;;;6.50;6.50;;;;;;;;5030840;28;61954;-80
2023/04/26 12:05:25;;;;;;;;;3.75;3.00;;;;;;;;5031021;28;61773;-80
2023/04/26 12:07:51;;;;;;;;;5.75;4.75;;;;;;;;5032526;28;62497;-80
2023/04/26 12:10:17;;;;;;;;;8.50;4.75;;;;;;;;5028166;28;63753;-80
2023/04/26 12:12:44;;;;;;;;;8.00;6.00;;;;;;;;5028850;28;62388;-80
2023/04/26 12:15:10;;;;;;;;;9.00;6.50;;;;;;;;5029170;28;61795;-80
2023/04/26 12:17:35;;;;;;;;;7.25;5.00;;;;;;;;5033361;28;61933;-80
2023/04/26 12:20:07;;;;;;;;;7.00;5.75;;;;;;;;5028928;28;63917;-80
2023/04/26 12:22:32;;;;;;;;;5.75;5.75;;;;;;;;5045502;28;61996;-79
2023/04/26 12:25:09;;;;;;;;;5.50;4.00;;;;;;;;5029035;28;62269;-79
2023/04/26 12:27:34;;;;;;;;;6.75;6.75;;;;;;;;5026039;28;61911;-79
2023/04/26 12:30:00;;;;;;;;;8.00;4.00;;;;;;;;5024980;28;63617;-79
2023/04/26 12:32:25;;;;;;;;;5.50;5.00;;;;;;;;5032427;28;62474;-79
2023/04/26 12:34:52;;;;;;;;;8.50;4.25;;;;;;;;5033428;28;63028;-80
2023/04/26 12:37:18;;;;;;;;;7.75;7.00;;;;;;;;5040410;28;61692;-79
2023/04/26 12:39:43;;;;;;;;;5.50;5.50;;;;;;;;5040087;28;62697;-79
2023/04/26 12:42:09;;;;;;;;;7.00;5.75;;;;;;;;5038678;28;61864;-80
2023/04/26 12:44:35;;;;;;;;;5.00;5.00;;;;;;;;5022581;28;61718;-80
2023/04/26 12:47:00;;;;;;;;;6.00;4.50;;;;;;;;5019129;28;61884;-80
2023/04/26 12:49:25;;;;;;;;;8.00;6.00;;;;;;;;5029189;28;62725;-80
2023/04/26 12:51:51;;;;;;;;;6.00;4.50;;;;;;;;5027135;28;61732;-80
2023/04/26 12:54:16;;;;;;;;;5.50;4.50;;;;;;;;5028712;28;62257;-80
2023/04/26 12:56:43;;;;;;;;;6.00;3.25;;;;;;;;5038624;28;61793;-80
2023/04/26 12:59:08;;;;;;;;;4.00;4.00;;;;;;;;5037134;28;63754;-80
2023/04/26 13:01:33;;;;;;;;;5.75;4.75;;;;;;;;5027788;28;62125;-79
2023/04/26 13:03:59;;;;;;;;;5.75;5.75;;;;;;;;5042280;28;61713;-79
2023/04/26 13:06:27;;;;;;;;;9.25;7.50;;;;;;;;5042844;28;61763;-80
2023/04/26 13:08:53;;;;;;;;;9.00;7.00;;;;;;;;5041052;28;63938;-80
2023/04/26 13:11:18;;;;;;;;;9.75;6.50;;;;;;;;5035128;28;61908;-80
2023/04/26 13:13:43;;;;;;;;;7.25;6.00;;;;;;;;5031528;28;61875;-80
2023/04/26 13:16:09;;;;;;;;;5.75;5.50;;;;;;;;5031680;28;62042;-80
2023/04/26 13:18:35;;;;;;;;;6.25;4.25;;;;;;;;5030547;28;63912;-80
2023/04/26 13:21:00;;;;;;;;;6.75;6.00;;;;;;;;5031407;28;62262;-80
2023/04/26 13:23:25;;;;;;;;;5.00;4.00;;;;;;;;5030676;28;62064;-79
2023/04/26 13:25:51;;;;;;;;;7.00;6.00;;;;;;;;5031440;28;61843;-78
2023/04/26 13:28:16;;;;;;;;;9.25;8.00;;;;;;;;5030427;28;63914;-80
2023/04/26 13:30:41;;;;;;;;;6.50;6.00;;;;;;;;5030848;28;62264;-79
2023/04/26 13:33:07;;;;;;;;;16.75;13.25;;;;;;;;5031993;28;61888;-79
2023/04/26 13:35:32;;;;;;;;;6.00;4.25;;;;;;;;5030653;28;62007;-80
2023/04/26 13:37:57;;;;;;;;;9.75;8.75;;;;;;;;5032916;28;62640;-79
2023/04/26 13:40:22;;;;;;;;;70.50;52.25;;;;;;;;5032144;28;61903;-80
2023/04/26 13:42:48;;;;;;;;;39.25;35.75;;;;;;;;5033727;28;61744;-80
2023/04/26 13:45:13;;;;;;;;;45.00;36.25;;;;;;;;5047099;28;61721;-80
2023/04/26 13:47:38;;;;;;;;;12.00;11.00;;;;;;;;5028203;28;63785;-79
2023/04/26 13:50:04;;;;;;;;;10.25;6.50;;;;;;;;5029952;28;61929;-79
2023/04/26 13:52:29;;;;;;;;;6.75;3.25;;;;;;;;5031452;28;61954;-79
2023/04/26 13:54:55;;;;;;;;;6.25;6.00;;;;;;;;5045660;28;61929;-80
2023/04/26 13:57:20;;;;;;;;;7.50;4.75;;;;;;;;5032204;28;62689;-80
2023/04/26 13:59:46;;;;;;;;;11.25;11.00;;;;;;;;5032913;28;61780;-80
2023/04/26 14:02:12;;;;;;;;;5.00;5.00;;;;;;;;5030664;28;62087;-79
2023/04/26 14:04:41;;;;;;;;;6.50;6.50;;;;;;;;5030271;28;61950;-80
2023/04/26 14:07:08;;;;;;;;;8.00;5.00;;;;;;;;5027928;28;63778;-77
2023/04/26 14:09:36;;;;;;;;;9.75;5.75;;;;;;;;5022500;28;62049;-77
2023/04/26 14:12:01;;;;;;;;;8.75;7.75;;;;;;;;5029293;28;61914;-77
2023/04/26 14:14:26;;;;;;;;;4.00;4.00;;;;;;;;5030411;28;61880;-77
2023/04/26 14:16:51;;;;;;;;;14.25;9.00;;;;;;;;5030450;28;62062;-78
2023/04/26 14:19:19;;;;;;;;;7.50;5.50;;;;;;;;5034070;28;61978;-78
2023/04/26 14:21:45;;;;;;;;;7.00;5.75;;;;;;;;5032118;28;61807;-78
2023/04/26 14:24:10;;;;;;;;;6.75;6.00;;;;;;;;5025943;28;61927;-78
2023/04/26 14:26:36;;;;;;;;;5.50;5.50;;;;;;;;5040180;28;63709;-78
2023/04/26 14:29:01;;;;;;;;;6.25;5.25;;;;;;;;5041760;28;62173;-78
2023/04/26 14:31:27;;;;;;;;;9.00;7.75;;;;;;;;5042699;28;61842;-78
2023/04/26 14:33:55;;;;;;;;;9.50;7.25;;;;;;;;5025010;28;62330;-78